createdAt,value
2023-03-29T00:00:49.862Z,10.10
2023-03-29T00:03:17.156Z,16.90
2023-03-29T00:05:44.869Z,13.73
2023-03-29T00:08:14.585Z,12.27
2023-03-29T00:10:43.867Z,20.13
2023-03-29T00:13:11.214Z,15.03
2023-03-29T00:15:38.022Z,13.30
2023-03-29T00:18:04.825Z,15.70
2023-03-29T00:20:31.608Z,13.50
2023-03-29T00:22:58.375Z,15.90
2023-03-29T00:25:27.365Z,16.67
2023-03-29T00:27:54.538Z,17.20
2023-03-29T00:30:26.021Z,11.77
2023-03-29T00:32:55.131Z,10.50
2023-03-29T00:35:24.169Z,11.37
2023-03-29T00:37:53.707Z,11.03
2023-03-29T00:40:22.686Z,14.53
2023-03-29T00:42:49.501Z,10.77
2023-03-29T00:45:20.429Z,12.13
2023-03-29T00:47:52.898Z,11.17
2023-03-29T00:50:29.758Z,10.80
2023-03-29T00:53:17.714Z,12.93
2023-03-29T00:56:05.305Z,15.63
2023-03-29T00:59:19.402Z,12.47
2023-03-29T01:02:02.320Z,13.83
2023-03-29T01:04:42.693Z,9.83
2023-03-29T01:07:30.850Z,14.53
2023-03-29T01:10:16.273Z,11.93
2023-03-29T01:12:51.455Z,14.87
2023-03-29T01:15:22.845Z,12.20
2023-03-29T01:17:53.516Z,14.80
2023-03-29T01:20:27.605Z,16.27
2023-03-29T01:23:21.328Z,16.13
2023-03-29T01:26:16.036Z,12.70
2023-03-29T01:28:47.141Z,13.93
2023-03-29T01:31:22.049Z,10.30
2023-03-29T01:33:51.014Z,16.07
2023-03-29T01:36:21.445Z,11.17
2023-03-29T01:38:57.975Z,11.93
2023-03-29T01:41:52.713Z,10.93
2023-03-29T01:44:59.305Z,14.80
2023-03-29T01:47:46.254Z,13.00
2023-03-29T01:50:41.015Z,15.10
2023-03-29T01:53:42.075Z,10.17
2023-03-29T01:56:16.416Z,11.70
2023-03-29T01:58:45.417Z,14.10
2023-03-29T02:01:17.733Z,12.50
2023-03-29T02:03:47.294Z,11.23
2023-03-29T02:06:14.378Z,11.83
2023-03-29T02:08:41.213Z,13.37
2023-03-29T02:11:08.637Z,10.87
2023-03-29T02:13:37.932Z,10.63
2023-03-29T02:16:12.317Z,14.67
2023-03-29T02:18:40.420Z,13.60
2023-03-29T02:21:07.634Z,13.50
2023-03-29T02:23:41.043Z,10.67
2023-03-29T02:26:14.453Z,13.50
2023-03-29T02:28:43.816Z,11.87
2023-03-29T02:31:22.629Z,9.20
2023-03-29T02:34:05.322Z,11.20
2023-03-29T02:36:44.129Z,12.67
2023-03-29T02:39:15.660Z,12.03
2023-03-29T02:41:43.598Z,15.17
2023-03-29T02:44:17.520Z,19.43
2023-03-29T02:46:44.470Z,12.17
2023-03-29T02:49:11.583Z,15.20
2023-03-29T02:51:38.418Z,13.23
2023-03-29T02:54:17.889Z,14.40
2023-03-29T02:56:46.346Z,13.10
2023-03-29T02:59:14.267Z,18.30
2023-03-29T03:01:42.848Z,12.13
2023-03-29T03:04:13.326Z,15.87
2023-03-29T03:06:40.378Z,12.27
2023-03-29T03:09:10.056Z,12.37
2023-03-29T03:11:36.938Z,15.90
2023-03-29T03:14:03.874Z,13.03
2023-03-29T03:16:33.313Z,10.33
2023-03-29T03:19:01.012Z,12.23
2023-03-29T03:21:30.956Z,13.53
2023-03-29T03:23:57.719Z,13.47
2023-03-29T03:26:30.297Z,12.90
2023-03-29T03:28:57.693Z,13.27
2023-03-29T03:31:24.877Z,14.53
2023-03-29T03:33:52.938Z,18.40
2023-03-29T03:36:19.700Z,18.03
2023-03-29T03:38:51.657Z,11.87
2023-03-29T03:41:18.493Z,15.27
2023-03-29T03:43:48.858Z,13.13
2023-03-29T03:46:20.317Z,13.27
2023-03-29T03:48:47.296Z,13.63
2023-03-29T03:51:14.194Z,12.90
2023-03-29T03:53:42.414Z,12.40
2023-03-29T03:56:09.409Z,11.10
2023-03-29T03:58:39.113Z,12.03
2023-03-29T04:01:08.387Z,15.73
2023-03-29T04:03:35.275Z,13.13
2023-03-29T04:06:04.573Z,19.60
2023-03-29T04:08:32.096Z,15.87
2023-03-29T04:11:01.790Z,16.10
2023-03-29T04:13:29.440Z,13.37
2023-03-29T04:15:58.778Z,13.30
2023-03-29T04:18:29.524Z,17.67
2023-03-29T04:20:56.365Z,14.13
2023-03-29T04:23:23.123Z,13.03
2023-03-29T04:25:50.178Z,11.63
2023-03-29T04:28:19.523Z,18.40
2023-03-29T04:30:47.359Z,13.30
2023-03-29T04:33:14.304Z,17.97
2023-03-29T04:35:41.090Z,15.07
2023-03-29T04:38:10.215Z,13.30
2023-03-29T04:40:42.168Z,12.33
2023-03-29T04:43:11.175Z,17.17
2023-03-29T04:45:40.404Z,12.80
2023-03-29T04:48:10.736Z,13.20
2023-03-29T04:50:38.023Z,12.33
2023-03-29T04:53:05.988Z,13.67
2023-03-29T04:55:33.180Z,17.67
2023-03-29T04:58:00.337Z,15.57
2023-03-29T05:00:29.358Z,15.33
2023-03-29T05:02:57.891Z,18.97
2023-03-29T05:05:24.863Z,14.83
2023-03-29T05:07:51.656Z,14.70
2023-03-29T05:10:20.141Z,20.33
2023-03-29T05:12:47.070Z,14.70
2023-03-29T05:15:14.888Z,19.87
2023-03-29T05:17:42.362Z,15.60
2023-03-29T05:20:13.262Z,11.67
2023-03-29T05:22:44.835Z,16.70
2023-03-29T05:25:14.175Z,16.90
2023-03-29T05:27:40.943Z,18.33
2023-03-29T05:30:09.307Z,15.57
2023-03-29T05:32:42.298Z,14.27
2023-03-29T05:35:09.620Z,16.23
2023-03-29T05:37:36.991Z,17.60
2023-03-29T05:40:07.116Z,17.10
2023-03-29T05:42:37.857Z,15.23
2023-03-29T05:45:07.703Z,15.33
2023-03-29T05:47:35.001Z,20.17
2023-03-29T05:50:02.229Z,14.87
2023-03-29T05:52:31.695Z,22.20
2023-03-29T05:54:58.857Z,12.93
2023-03-29T05:57:27.565Z,13.77
2023-03-29T05:59:55.332Z,12.53
2023-03-29T06:02:22.935Z,13.07
2023-03-29T06:04:49.870Z,15.50
2023-03-29T06:07:17.592Z,18.03
2023-03-29T06:09:45.713Z,14.00
2023-03-29T06:12:15.502Z,9.67
2023-03-29T06:14:42.251Z,19.07
2023-03-29T06:17:09.557Z,13.73
2023-03-29T06:19:37.350Z,12.97
2023-03-29T06:22:04.143Z,29.00
2023-03-29T06:24:30.950Z,23.57
2023-03-29T06:26:59.940Z,14.17
2023-03-29T06:29:26.684Z,11.47
2023-03-29T06:31:54.492Z,11.90
2023-03-29T06:34:22.505Z,15.53
2023-03-29T06:36:51.105Z,12.73
2023-03-29T06:39:20.052Z,12.40
2023-03-29T06:41:49.162Z,12.23
2023-03-29T06:44:17.381Z,14.23
2023-03-29T06:46:44.336Z,11.77
2023-03-29T06:49:13.752Z,16.50
2023-03-29T06:51:40.698Z,15.97
2023-03-29T06:54:07.926Z,18.67
2023-03-29T06:56:35.092Z,16.00
2023-03-29T06:59:02.598Z,13.93
2023-03-29T07:01:31.772Z,12.80
2023-03-29T07:04:04.805Z,11.20
2023-03-29T07:06:33.942Z,13.57
2023-03-29T07:09:06.625Z,17.90
2023-03-29T07:11:36.433Z,14.17
2023-03-29T07:14:03.428Z,14.77
2023-03-29T07:16:30.297Z,11.63
2023-03-29T07:18:57.510Z,14.93
2023-03-29T07:21:24.323Z,11.50
2023-03-29T07:23:54.071Z,9.67
2023-03-29T07:26:29.014Z,11.50
2023-03-29T07:28:57.028Z,11.47
2023-03-29T07:31:23.860Z,34.70
2023-03-29T07:33:53.564Z,14.37
2023-03-29T07:36:21.225Z,12.70
2023-03-29T07:38:48.708Z,8.77
2023-03-29T07:41:15.484Z,13.70
2023-03-29T07:43:44.792Z,10.97
2023-03-29T07:46:12.043Z,9.57
2023-03-29T07:48:38.841Z,16.20
2023-03-29T07:51:06.351Z,13.43
2023-03-29T07:53:33.734Z,8.47
2023-03-29T07:56:01.080Z,11.53
2023-03-29T07:58:29.565Z,10.13
2023-03-29T08:00:56.415Z,9.33
2023-03-29T08:03:23.829Z,9.90
2023-03-29T08:05:51.560Z,13.03
2023-03-29T08:08:21.029Z,12.30
2023-03-29T08:10:50.393Z,8.47
2023-03-29T08:13:17.670Z,12.70
2023-03-29T08:15:47.357Z,10.23
2023-03-29T08:18:16.419Z,9.87
2023-03-29T08:20:43.694Z,14.50
2023-03-29T08:23:12.766Z,13.43
2023-03-29T08:25:40.062Z,11.43
2023-03-29T08:28:06.827Z,10.63
2023-03-29T08:30:33.640Z,13.20
2023-03-29T08:33:00.568Z,8.00
2023-03-29T08:35:27.720Z,12.50
2023-03-29T08:37:54.898Z,7.67
2023-03-29T08:40:24.501Z,10.87
2023-03-29T08:43:12.528Z,12.13
2023-03-29T08:45:49.732Z,11.40
2023-03-29T08:48:38.093Z,8.60
2023-03-29T08:51:28.024Z,6.57
2023-03-29T08:54:39.407Z,9.47
2023-03-29T08:57:27.208Z,8.83
2023-03-29T08:59:57.527Z,5.47
2023-03-29T09:02:34.196Z,4.23
2023-03-29T09:05:09.144Z,6.60
2023-03-29T09:07:36.482Z,5.03
2023-03-29T09:10:03.672Z,7.80
2023-03-29T09:13:03.399Z,6.80
2023-03-29T09:15:52.533Z,6.53
2023-03-29T09:18:31.748Z,4.17
2023-03-29T09:21:22.719Z,8.13
2023-03-29T09:23:49.917Z,8.00
2023-03-29T09:26:28.535Z,11.30
2023-03-29T09:29:16.648Z,5.43
2023-03-29T09:31:44.772Z,5.00
2023-03-29T09:34:17.971Z,4.67
2023-03-29T09:37:06.494Z,4.20
2023-03-29T09:39:33.305Z,4.00
2023-03-29T09:42:11.906Z,7.70
2023-03-29T09:44:52.932Z,4.87
2023-03-29T09:47:24.904Z,4.53
2023-03-29T09:49:55.451Z,10.53
2023-03-29T09:52:24.730Z,10.30
2023-03-29T09:54:51.972Z,4.60
2023-03-29T09:57:19.625Z,5.77
2023-03-29T09:59:49.314Z,6.27
2023-03-29T10:02:16.745Z,6.70
2023-03-29T10:04:44.635Z,10.87
2023-03-29T10:07:20.632Z,6.23
2023-03-29T10:09:50.689Z,5.57
2023-03-29T10:12:17.938Z,8.47
2023-03-29T10:14:53.987Z,5.43
2023-03-29T10:17:25.511Z,4.03
2023-03-29T10:19:52.824Z,9.47
2023-03-29T10:22:23.120Z,6.10
2023-03-29T10:24:53.108Z,3.97
2023-03-29T10:27:26.143Z,5.50
2023-03-29T10:29:53.385Z,9.43
2023-03-29T10:32:23.387Z,6.47
2023-03-29T10:34:51.172Z,6.60
2023-03-29T10:37:23.899Z,5.17
2023-03-29T10:39:50.699Z,7.83
2023-03-29T10:42:18.443Z,6.43
2023-03-29T10:44:56.870Z,8.50
2023-03-29T10:47:24.121Z,9.70
2023-03-29T10:49:58.922Z,4.47
2023-03-29T10:52:26.682Z,4.70
2023-03-29T10:54:54.709Z,10.10
2023-03-29T10:57:37.684Z,6.50
2023-03-29T11:00:13.395Z,5.57
2023-03-29T11:02:45.258Z,5.50
2023-03-29T11:05:17.314Z,7.87
2023-03-29T11:08:08.924Z,5.57
2023-03-29T11:10:41.483Z,4.27
2023-03-29T11:13:08.636Z,5.23
2023-03-29T11:16:10.944Z,4.23
2023-03-29T11:18:38.175Z,7.57
2023-03-29T11:21:27.347Z,7.43
2023-03-29T11:24:27.414Z,11.60
2023-03-29T11:27:07.991Z,4.23
2023-03-29T11:30:06.460Z,5.43
2023-03-29T11:32:33.472Z,4.70
2023-03-29T11:35:19.135Z,4.50
2023-03-29T11:37:57.833Z,5.33
2023-03-29T11:40:27.968Z,8.47
2023-03-29T11:42:56.048Z,5.27
2023-03-29T11:45:40.045Z,6.77
2023-03-29T11:48:10.089Z,4.97
2023-03-29T11:50:48.592Z,6.07
2023-03-29T11:53:23.964Z,9.10
2023-03-29T11:55:53.262Z,4.93
2023-03-29T11:58:39.663Z,6.40
2023-03-29T12:01:20.650Z,7.90
2023-03-29T12:03:59.471Z,5.27
2023-03-29T12:06:44.102Z,5.53
2023-03-29T12:09:22.504Z,5.73
2023-03-29T12:11:53.124Z,6.07
2023-03-29T12:14:26.004Z,12.63
2023-03-29T12:17:04.521Z,3.70
2023-03-29T12:19:40.279Z,7.67
2023-03-29T12:22:09.319Z,4.43
2023-03-29T12:24:40.560Z,6.17
2023-03-29T12:27:08.401Z,4.07
2023-03-29T12:29:35.842Z,6.67
2023-03-29T12:32:41.460Z,5.60
2023-03-29T12:35:23.203Z,13.93
2023-03-29T12:37:58.946Z,6.67
2023-03-29T12:40:27.551Z,5.20
2023-03-29T12:43:05.658Z,10.80
2023-03-29T12:45:32.835Z,5.27
2023-03-29T12:48:02.018Z,6.70
2023-03-29T12:50:36.709Z,5.77
2023-03-29T12:53:27.099Z,6.00
2023-03-29T12:55:55.948Z,8.63
2023-03-29T12:59:01.985Z,5.10
2023-03-29T13:01:36.981Z,7.27
2023-03-29T13:04:19.801Z,4.93
2023-03-29T13:06:51.042Z,7.50
2023-03-29T13:09:29.500Z,6.37
2023-03-29T13:12:16.550Z,5.60
2023-03-29T13:15:18.089Z,5.87
2023-03-29T13:18:17.454Z,6.00
2023-03-29T13:21:06.072Z,5.13
2023-03-29T13:23:36.430Z,5.87
2023-03-29T13:26:43.500Z,7.50
2023-03-29T13:29:22.501Z,5.97
2023-03-29T13:32:05.413Z,5.40
2023-03-29T13:34:49.720Z,9.07
2023-03-29T13:37:22.774Z,5.20
2023-03-29T13:39:53.934Z,4.47
2023-03-29T13:42:24.949Z,4.03
2023-03-29T13:44:54.273Z,4.43
2023-03-29T13:47:35.513Z,4.67
2023-03-29T13:50:17.863Z,3.57
2023-03-29T13:53:13.858Z,3.53
2023-03-29T13:55:48.933Z,3.87
2023-03-29T13:58:43.125Z,2.97
2023-03-29T14:01:32.004Z,3.63
2023-03-29T14:03:59.251Z,3.37
2023-03-29T14:06:29.851Z,4.60
2023-03-29T14:08:59.565Z,3.23
2023-03-29T14:11:28.200Z,3.43
2023-03-29T14:13:55.485Z,4.50
2023-03-29T14:16:22.841Z,3.70
2023-03-29T14:18:51.472Z,3.63
2023-03-29T14:21:18.531Z,7.13
2023-03-29T14:23:46.923Z,3.37
2023-03-29T14:26:14.270Z,4.57
2023-03-29T14:29:03.280Z,4.60
2023-03-29T14:31:30.823Z,7.77
2023-03-29T14:33:59.237Z,5.53
2023-03-29T14:36:29.704Z,4.50
2023-03-29T14:39:27.458Z,5.57
2023-03-29T14:41:57.285Z,4.13
2023-03-29T14:44:34.606Z,5.07
2023-03-29T14:47:04.118Z,3.80
2023-03-29T14:49:31.355Z,4.80
2023-03-29T14:51:58.338Z,4.23
2023-03-29T14:54:29.762Z,3.30
2023-03-29T14:56:59.422Z,8.83
2023-03-29T14:59:32.586Z,3.60
2023-03-29T15:01:59.413Z,6.23
2023-03-29T15:04:33.119Z,5.73
2023-03-29T15:07:00.302Z,5.40
2023-03-29T15:09:33.261Z,6.83
2023-03-29T15:12:01.373Z,4.83
2023-03-29T15:14:33.839Z,5.20
2023-03-29T15:17:23.880Z,7.03
2023-03-29T15:19:57.582Z,6.77
2023-03-29T15:22:24.366Z,5.47
2023-03-29T15:24:51.517Z,6.37
2023-03-29T15:27:19.142Z,4.43
2023-03-29T15:29:47.368Z,4.73
2023-03-29T15:32:22.577Z,6.67
2023-03-29T15:34:59.650Z,6.43
2023-03-29T15:37:29.095Z,5.87
2023-03-29T15:39:58.407Z,5.90
2023-03-29T15:42:27.862Z,6.30
2023-03-29T15:44:56.291Z,8.73
2023-03-29T15:47:27.653Z,6.17
2023-03-29T15:49:54.864Z,5.93
2023-03-29T15:52:22.345Z,7.93
2023-03-29T15:54:49.139Z,5.13
2023-03-29T15:57:16.277Z,5.83
2023-03-29T15:59:43.772Z,8.37
2023-03-29T16:02:21.810Z,5.83
2023-03-29T16:04:49.036Z,8.97
2023-03-29T16:07:18.585Z,5.90
2023-03-29T16:09:47.884Z,6.73
2023-03-29T16:12:16.915Z,9.03
2023-03-29T16:14:46.379Z,7.30
2023-03-29T16:17:14.185Z,6.30
2023-03-29T16:19:41.360Z,5.70
2023-03-29T16:22:10.578Z,6.60
2023-03-29T16:24:37.463Z,5.07
2023-03-29T16:27:09.268Z,6.67
2023-03-29T16:29:36.137Z,9.10
2023-03-29T16:32:05.467Z,7.50
2023-03-29T16:34:38.113Z,5.07
2023-03-29T16:37:05.379Z,5.47
2023-03-29T16:39:34.606Z,5.97
2023-03-29T16:42:01.372Z,5.07
2023-03-29T16:44:28.151Z,8.17
2023-03-29T16:46:57.796Z,8.20
2023-03-29T16:49:25.115Z,6.53
2023-03-29T16:51:52.053Z,8.43
2023-03-29T16:54:19.285Z,6.77
2023-03-29T16:56:48.785Z,7.63
2023-03-29T16:59:16.586Z,6.67
2023-03-29T17:01:43.487Z,5.97
2023-03-29T17:04:12.865Z,8.77
2023-03-29T17:06:39.713Z,8.53
2023-03-29T17:09:07.387Z,6.00
2023-03-29T17:11:34.769Z,6.60
2023-03-29T17:14:01.705Z,8.97
2023-03-29T17:16:29.365Z,7.33
2023-03-29T17:19:00.235Z,13.27
2023-03-29T17:21:30.821Z,9.53
2023-03-29T17:23:58.005Z,10.77
2023-03-29T17:26:26.066Z,10.77
2023-03-29T17:28:53.242Z,10.77
2023-03-29T17:31:20.113Z,12.47
2023-03-29T17:33:47.563Z,12.10
2023-03-29T17:36:16.725Z,15.20
2023-03-29T17:38:43.950Z,14.83
2023-03-29T17:41:11.159Z,9.53
2023-03-29T17:43:38.362Z,10.93
2023-03-29T17:46:05.676Z,9.73
2023-03-29T17:48:33.190Z,14.17
2023-03-29T17:51:00.502Z,10.87
2023-03-29T17:53:27.427Z,13.03
2023-03-29T17:55:57.086Z,10.83
2023-03-29T17:58:24.305Z,8.57
2023-03-29T18:00:51.493Z,10.70
2023-03-29T18:03:18.723Z,18.13
2023-03-29T18:05:48.500Z,13.93
2023-03-29T18:08:16.831Z,8.30
2023-03-29T18:10:45.930Z,10.73
2023-03-29T18:13:14.724Z,14.13
2023-03-29T18:15:42.132Z,9.03
2023-03-29T18:18:09.380Z,13.00
2023-03-29T18:20:38.416Z,12.87
2023-03-29T18:23:05.638Z,15.33
2023-03-29T18:25:32.826Z,10.73
2023-03-29T18:28:00.098Z,12.93
2023-03-29T18:30:29.514Z,10.13
2023-03-29T18:32:56.781Z,13.70
2023-03-29T18:35:26.257Z,12.57
2023-03-29T18:37:55.295Z,11.60
2023-03-29T18:40:24.898Z,16.07
2023-03-29T18:42:52.398Z,15.70
2023-03-29T18:45:19.304Z,15.63
2023-03-29T18:47:46.875Z,15.20
2023-03-29T18:50:14.104Z,15.87
2023-03-29T18:52:40.899Z,15.97
2023-03-29T18:55:10.332Z,14.33
2023-03-29T18:57:37.255Z,17.83
2023-03-29T19:00:10.577Z,16.70
2023-03-29T19:02:38.592Z,19.53
2023-03-29T19:05:06.019Z,18.30
2023-03-29T19:07:33.265Z,17.03
2023-03-29T19:10:00.442Z,18.00
2023-03-29T19:12:27.231Z,20.67
2023-03-29T19:14:54.766Z,23.63
2023-03-29T19:17:22.004Z,19.93
2023-03-29T19:19:49.212Z,22.87
2023-03-29T19:22:17.367Z,26.30
2023-03-29T19:24:44.534Z,26.03
2023-03-29T19:27:12.655Z,23.10
2023-03-29T19:29:39.973Z,24.30
2023-03-29T19:32:07.179Z,32.73
2023-03-29T19:34:34.162Z,29.37
2023-03-29T19:37:03.166Z,31.43
2023-03-29T19:39:30.407Z,28.73
2023-03-29T19:41:57.629Z,31.70
2023-03-29T19:44:24.828Z,35.50
2023-03-29T19:46:52.183Z,30.27
2023-03-29T19:49:19.714Z,33.27
2023-03-29T19:51:47.901Z,30.97
2023-03-29T19:54:17.385Z,35.23
2023-03-29T19:56:44.630Z,33.47
2023-03-29T19:59:14.811Z,30.10
2023-03-29T20:01:51.094Z,32.50
2023-03-29T20:04:20.989Z,32.63
2023-03-29T20:06:47.882Z,28.30
2023-03-29T20:09:16.926Z,30.90
2023-03-29T20:11:46.921Z,33.10
2023-03-29T20:14:16.209Z,29.97
2023-03-29T20:16:46.812Z,29.13
2023-03-29T20:19:17.904Z,31.70
2023-03-29T20:21:45.131Z,31.73
2023-03-29T20:24:12.585Z,30.13
2023-03-29T20:26:39.872Z,31.73
2023-03-29T20:29:08.896Z,30.63
2023-03-29T20:31:40.834Z,29.63
2023-03-29T20:34:08.088Z,33.73
2023-03-29T20:36:35.816Z,31.50
2023-03-29T20:39:03.564Z,31.43
2023-03-29T20:41:31.637Z,28.83
2023-03-29T20:43:58.890Z,31.87
2023-03-29T20:46:33.353Z,29.90
2023-03-29T20:49:01.415Z,27.70
2023-03-29T20:51:31.972Z,31.00
2023-03-29T20:54:03.329Z,33.30
2023-03-29T20:56:40.102Z,33.00
2023-03-29T20:59:10.739Z,36.57
2023-03-29T21:01:41.025Z,31.50
2023-03-29T21:04:08.668Z,33.13
2023-03-29T21:06:36.120Z,33.77
2023-03-29T21:09:07.615Z,33.30
2023-03-29T21:11:36.777Z,37.20
2023-03-29T21:14:04.201Z,35.87
2023-03-29T21:16:33.118Z,35.67
2023-03-29T21:19:00.620Z,40.00
2023-03-29T21:21:29.663Z,35.53
2023-03-29T21:23:56.861Z,34.87
2023-03-29T21:26:26.134Z,37.70
2023-03-29T21:28:53.481Z,35.33
2023-03-29T21:31:24.650Z,34.50
2023-03-29T21:33:53.075Z,31.30
2023-03-29T21:36:20.610Z,34.17
2023-03-29T21:38:50.224Z,33.40
2023-03-29T21:41:17.457Z,33.67
2023-03-29T21:43:44.626Z,33.57
2023-03-29T21:46:11.978Z,35.83
2023-03-29T21:48:39.346Z,38.30
2023-03-29T21:51:07.139Z,31.30
2023-03-29T21:53:34.119Z,32.10
2023-03-29T21:56:01.500Z,32.13
2023-03-29T21:58:28.307Z,30.20
2023-03-29T22:00:59.566Z,34.33
2023-03-29T22:03:29.298Z,35.93
2023-03-29T22:06:00.003Z,34.50
2023-03-29T22:08:29.712Z,35.07
2023-03-29T22:10:57.127Z,35.57
2023-03-29T22:13:28.287Z,32.20
2023-03-29T22:16:01.520Z,33.30
2023-03-29T22:18:42.146Z,36.67
2023-03-29T22:21:14.029Z,33.67
2023-03-29T22:23:43.477Z,31.00
2023-03-29T22:26:11.278Z,32.33
2023-03-29T22:28:38.803Z,30.87
2023-03-29T22:31:07.258Z,36.00
2023-03-29T22:33:34.684Z,44.37
2023-03-29T22:36:02.480Z,36.40
2023-03-29T22:38:29.743Z,34.93
2023-03-29T22:40:56.947Z,41.50
2023-03-29T22:43:24.474Z,39.03
2023-03-29T22:45:51.674Z,37.43
2023-03-29T22:48:21.066Z,34.40
2023-03-29T22:50:48.345Z,38.83
2023-03-29T22:53:15.239Z,38.83
2023-03-29T22:55:42.464Z,39.17
2023-03-29T22:58:09.643Z,37.87
2023-03-29T23:00:36.814Z,42.77
2023-03-29T23:03:06.644Z,37.53
2023-03-29T23:05:34.114Z,31.83
2023-03-29T23:08:01.480Z,38.47
2023-03-29T23:10:31.467Z,39.67
2023-03-29T23:13:08.631Z,40.67
2023-03-29T23:15:43.515Z,39.90
2023-03-29T23:18:13.098Z,33.53
2023-03-29T23:20:42.779Z,35.53
2023-03-29T23:23:11.768Z,34.10
2023-03-29T23:25:38.922Z,34.03
2023-03-29T23:28:05.707Z,29.03
2023-03-29T23:30:35.860Z,32.07
2023-03-29T23:33:03.065Z,40.43
2023-03-29T23:35:32.425Z,36.03
2023-03-29T23:37:59.808Z,40.67
2023-03-29T23:40:27.807Z,38.67
2023-03-29T23:42:59.602Z,33.73
2023-03-29T23:45:28.004Z,34.90
2023-03-29T23:47:55.291Z,34.73
2023-03-29T23:50:22.664Z,31.67
2023-03-29T23:52:51.514Z,34.93
2023-03-29T23:55:18.589Z,36.53
2023-03-29T23:57:45.775Z,33.50
